sensor_id;sensor_type;location;lat;lon;timestamp;P1;durP1;ratioP1;P2;durP2;ratioP2
22660;SDS011;11497;52.222;21.246;2023-08-30T00:00:00;48.70;;;34.28;;
22660;SDS011;11497;52.222;21.246;2023-08-30T00:02:32;53.28;;;34.55;;
22660;SDS011;11497;52.222;21.246;2023-08-30T00:05:00;53.80;;;35.45;;
22660;SDS011;11497;52.222;21.246;2023-08-30T00:07:27;57.67;;;35.13;;
22660;SDS011;11497;52.222;21.246;2023-08-30T00:09:56;59.38;;;37.67;;
22660;SDS011;11497;52.222;21.246;2023-08-30T00:12:23;55.85;;;36.67;;
22660;SDS011;11497;52.222;21.246;2023-08-30T00:14:51;59.42;;;38.10;;
22660;SDS011;11497;52.222;21.246;2023-08-30T00:17:19;59.90;;;38.33;;
22660;SDS011;11497;52.222;21.246;2023-08-30T00:19:47;56.03;;;37.22;;
22660;SDS011;11497;52.222;21.246;2023-08-30T00:22:15;64.78;;;39.17;;
22660;SDS011;11497;52.222;21.246;2023-08-30T00:24:43;62.15;;;40.63;;
22660;SDS011;11497;52.222;21.246;2023-08-30T00:27:11;65.38;;;40.47;;
22660;SDS011;11497;52.222;21.246;2023-08-30T00:29:39;64.05;;;42.53;;
22660;SDS011;11497;52.222;21.246;2023-08-30T00:32:06;72.00;;;43.10;;
22660;SDS011;11497;52.222;21.246;2023-08-30T00:34:34;71.45;;;44.65;;
22660;SDS011;11497;52.222;21.246;2023-08-30T00:37:03;69.18;;;43.78;;
22660;SDS011;11497;52.222;21.246;2023-08-30T00:39:31;69.80;;;46.10;;
22660;SDS011;11497;52.222;21.246;2023-08-30T00:41:59;70.50;;;44.42;;
22660;SDS011;11497;52.222;21.246;2023-08-30T00:44:31;70.05;;;44.65;;
22660;SDS011;11497;52.222;21.246;2023-08-30T00:47:00;71.95;;;45.55;;
22660;SDS011;11497;52.222;21.246;2023-08-30T00:49:29;69.28;;;43.60;;
22660;SDS011;11497;52.222;21.246;2023-08-30T00:52:01;68.50;;;44.22;;
22660;SDS011;11497;52.222;21.246;2023-08-30T00:54:30;70.53;;;43.60;;
22660;SDS011;11497;52.222;21.246;2023-08-30T00:56:58;68.43;;;42.70;;
22660;SDS011;11497;52.222;21.246;2023-08-30T00:59:28;73.03;;;43.88;;
22660;SDS011;11497;52.222;21.246;2023-08-30T01:01:57;71.85;;;43.88;;
22660;SDS011;11497;52.222;21.246;2023-08-30T01:04:25;71.88;;;43.67;;
22660;SDS011;11497;52.222;21.246;2023-08-30T01:06:52;70.45;;;42.97;;
22660;SDS011;11497;52.222;21.246;2023-08-30T01:09:20;76.05;;;44.85;;
22660;SDS011;11497;52.222;21.246;2023-08-30T01:11:50;72.28;;;43.88;;
22660;SDS011;11497;52.222;21.246;2023-08-30T01:14:22;73.78;;;43.67;;
22660;SDS011;11497;52.222;21.246;2023-08-30T01:16:49;70.68;;;42.67;;
22660;SDS011;11497;52.222;21.246;2023-08-30T01:22:02;67.68;;;41.78;;
22660;SDS011;11497;52.222;21.246;2023-08-30T01:29:28;76.38;;;43.75;;
22660;SDS011;11497;52.222;21.246;2023-08-30T01:31:56;71.93;;;43.92;;
22660;SDS011;11497;52.222;21.246;2023-08-30T01:34:24;77.25;;;42.50;;
22660;SDS011;11497;52.222;21.246;2023-08-30T01:36:52;83.45;;;44.90;;
22660;SDS011;11497;52.222;21.246;2023-08-30T01:39:20;72.32;;;42.70;;
22660;SDS011;11497;52.222;21.246;2023-08-30T01:41:48;78.60;;;46.63;;
22660;SDS011;11497;52.222;21.246;2023-08-30T01:44:20;80.75;;;44.53;;
22660;SDS011;11497;52.222;21.246;2023-08-30T01:46:47;79.82;;;43.72;;
22660;SDS011;11497;52.222;21.246;2023-08-30T01:49:15;75.97;;;44.25;;
22660;SDS011;11497;52.222;21.246;2023-08-30T01:51:43;76.45;;;43.15;;
22660;SDS011;11497;52.222;21.246;2023-08-30T01:54:12;80.00;;;43.25;;
22660;SDS011;11497;52.222;21.246;2023-08-30T01:56:42;79.40;;;43.00;;
22660;SDS011;11497;52.222;21.246;2023-08-30T01:59:11;77.13;;;44.15;;
22660;SDS011;11497;52.222;21.246;2023-08-30T02:01:39;75.40;;;42.15;;
22660;SDS011;11497;52.222;21.246;2023-08-30T02:04:07;75.20;;;42.85;;
22660;SDS011;11497;52.222;21.246;2023-08-30T02:06:43;77.97;;;43.28;;
22660;SDS011;11497;52.222;21.246;2023-08-30T02:09:17;74.95;;;41.65;;
22660;SDS011;11497;52.222;21.246;2023-08-30T02:11:46;84.03;;;44.97;;
22660;SDS011;11497;52.222;21.246;2023-08-30T02:14:16;77.53;;;41.65;;
22660;SDS011;11497;52.222;21.246;2023-08-30T02:16:45;82.53;;;42.65;;
22660;SDS011;11497;52.222;21.246;2023-08-30T02:19:14;83.03;;;43.25;;
22660;SDS011;11497;52.222;21.246;2023-08-30T02:21:47;80.32;;;42.60;;
22660;SDS011;11497;52.222;21.246;2023-08-30T02:24:17;83.38;;;43.20;;
22660;SDS011;11497;52.222;21.246;2023-08-30T02:26:45;73.93;;;40.60;;
22660;SDS011;11497;52.222;21.246;2023-08-30T02:29:13;75.35;;;41.40;;
22660;SDS011;11497;52.222;21.246;2023-08-30T02:31:41;65.70;;;39.25;;
22660;SDS011;11497;52.222;21.246;2023-08-30T02:34:09;64.43;;;37.33;;
22660;SDS011;11497;52.222;21.246;2023-08-30T02:36:37;64.82;;;36.47;;
22660;SDS011;11497;52.222;21.246;2023-08-30T02:39:04;62.45;;;36.42;;
22660;SDS011;11497;52.222;21.246;2023-08-30T02:41:32;61.22;;;36.53;;
22660;SDS011;11497;52.222;21.246;2023-08-30T02:44:01;55.67;;;35.33;;
22660;SDS011;11497;52.222;21.246;2023-08-30T02:46:28;60.47;;;35.63;;
22660;SDS011;11497;52.222;21.246;2023-08-30T02:48:56;62.30;;;36.28;;
22660;SDS011;11497;52.222;21.246;2023-08-30T02:51:24;57.72;;;36.03;;
22660;SDS011;11497;52.222;21.246;2023-08-30T02:53:51;58.55;;;36.75;;
22660;SDS011;11497;52.222;21.246;2023-08-30T02:56:19;55.47;;;35.08;;
22660;SDS011;11497;52.222;21.246;2023-08-30T02:58:47;57.83;;;34.60;;
22660;SDS011;11497;52.222;21.246;2023-08-30T03:01:15;57.88;;;36.53;;
22660;SDS011;11497;52.222;21.246;2023-08-30T03:03:45;65.57;;;36.38;;
22660;SDS011;11497;52.222;21.246;2023-08-30T03:06:12;62.92;;;36.17;;
22660;SDS011;11497;52.222;21.246;2023-08-30T03:08:41;61.20;;;35.58;;
22660;SDS011;11497;52.222;21.246;2023-08-30T03:11:10;65.00;;;36.33;;
22660;SDS011;11497;52.222;21.246;2023-08-30T03:13:46;59.30;;;36.28;;
22660;SDS011;11497;52.222;21.246;2023-08-30T03:16:14;61.50;;;36.45;;
22660;SDS011;11497;52.222;21.246;2023-08-30T03:18:43;66.55;;;38.78;;
22660;SDS011;11497;52.222;21.246;2023-08-30T03:21:11;67.15;;;37.80;;
22660;SDS011;11497;52.222;21.246;2023-08-30T03:23:39;70.82;;;38.60;;
22660;SDS011;11497;52.222;21.246;2023-08-30T03:26:12;74.68;;;42.30;;
22660;SDS011;11497;52.222;21.246;2023-08-30T03:28:41;70.60;;;38.55;;
22660;SDS011;11497;52.222;21.246;2023-08-30T03:33:40;71.25;;;38.92;;
22660;SDS011;11497;52.222;21.246;2023-08-30T03:36:12;70.63;;;37.83;;
22660;SDS011;11497;52.222;21.246;2023-08-30T03:38:40;80.93;;;39.45;;
22660;SDS011;11497;52.222;21.246;2023-08-30T03:41:11;76.63;;;39.13;;
22660;SDS011;11497;52.222;21.246;2023-08-30T03:43:39;72.40;;;39.25;;
22660;SDS011;11497;52.222;21.246;2023-08-30T03:46:08;77.78;;;40.47;;
22660;SDS011;11497;52.222;21.246;2023-08-30T03:48:38;83.45;;;41.45;;
22660;SDS011;11497;52.222;21.246;2023-08-30T03:51:06;86.35;;;42.38;;
22660;SDS011;11497;52.222;21.246;2023-08-30T03:53:34;84.47;;;42.28;;
22660;SDS011;11497;52.222;21.246;2023-08-30T03:56:02;83.88;;;42.05;;
22660;SDS011;11497;52.222;21.246;2023-08-30T03:58:31;92.68;;;42.70;;
22660;SDS011;11497;52.222;21.246;2023-08-30T04:00:59;87.88;;;43.08;;
22660;SDS011;11497;52.222;21.246;2023-08-30T04:03:27;91.15;;;43.13;;
22660;SDS011;11497;52.222;21.246;2023-08-30T04:05:55;80.13;;;41.85;;
22660;SDS011;11497;52.222;21.246;2023-08-30T04:08:24;89.00;;;43.63;;
22660;SDS011;11497;52.222;21.246;2023-08-30T04:10:52;94.97;;;42.88;;
22660;SDS011;11497;52.222;21.246;2023-08-30T04:13:20;93.45;;;43.80;;
22660;SDS011;11497;52.222;21.246;2023-08-30T04:15:48;93.25;;;42.55;;
22660;SDS011;11497;52.222;21.246;2023-08-30T04:18:15;82.78;;;42.55;;
22660;SDS011;11497;52.222;21.246;2023-08-30T04:20:44;82.38;;;42.00;;
22660;SDS011;11497;52.222;21.246;2023-08-30T04:23:13;84.65;;;42.13;;
22660;SDS011;11497;52.222;21.246;2023-08-30T04:25:40;91.90;;;42.53;;
22660;SDS011;11497;52.222;21.246;2023-08-30T04:28:09;83.30;;;41.67;;
22660;SDS011;11497;52.222;21.246;2023-08-30T04:30:37;80.15;;;39.83;;
22660;SDS011;11497;52.222;21.246;2023-08-30T04:33:07;79.38;;;40.40;;
22660;SDS011;11497;52.222;21.246;2023-08-30T04:35:35;82.38;;;41.05;;
22660;SDS011;11497;52.222;21.246;2023-08-30T04:38:03;89.10;;;41.92;;
22660;SDS011;11497;52.222;21.246;2023-08-30T04:40:31;84.20;;;40.67;;
22660;SDS011;11497;52.222;21.246;2023-08-30T04:43:00;73.90;;;39.42;;
22660;SDS011;11497;52.222;21.246;2023-08-30T04:45:28;79.57;;;40.13;;
22660;SDS011;11497;52.222;21.246;2023-08-30T04:47:56;73.32;;;40.22;;
22660;SDS011;11497;52.222;21.246;2023-08-30T04:50:25;70.88;;;40.65;;
22660;SDS011;11497;52.222;21.246;2023-08-30T04:52:53;74.25;;;39.53;;
22660;SDS011;11497;52.222;21.246;2023-08-30T04:55:28;76.97;;;41.35;;
22660;SDS011;11497;52.222;21.246;2023-08-30T04:57:58;71.25;;;39.92;;
22660;SDS011;11497;52.222;21.246;2023-08-30T05:00:31;76.78;;;40.65;;
22660;SDS011;11497;52.222;21.246;2023-08-30T05:02:59;75.22;;;40.38;;
22660;SDS011;11497;52.222;21.246;2023-08-30T05:05:27;74.78;;;42.00;;
22660;SDS011;11497;52.222;21.246;2023-08-30T05:07:57;73.07;;;40.95;;
22660;SDS011;11497;52.222;21.246;2023-08-30T05:10:26;71.75;;;41.83;;
22660;SDS011;11497;52.222;21.246;2023-08-30T05:12:55;67.03;;;39.90;;
22660;SDS011;11497;52.222;21.246;2023-08-30T05:15:22;68.63;;;40.67;;
22660;SDS011;11497;52.222;21.246;2023-08-30T05:17:50;71.35;;;40.45;;
22660;SDS011;11497;52.222;21.246;2023-08-30T05:20:18;70.78;;;40.20;;
22660;SDS011;11497;52.222;21.246;2023-08-30T05:22:46;65.93;;;38.90;;
22660;SDS011;11497;52.222;21.246;2023-08-30T05:25:13;74.15;;;40.72;;
22660;SDS011;11497;52.222;21.246;2023-08-30T05:27:42;67.55;;;39.75;;
22660;SDS011;11497;52.222;21.246;2023-08-30T05:30:10;69.88;;;38.10;;
22660;SDS011;11497;52.222;21.246;2023-08-30T05:32:39;67.88;;;38.63;;
22660;SDS011;11497;52.222;21.246;2023-08-30T05:35:30;64.15;;;38.67;;
22660;SDS011;11497;52.222;21.246;2023-08-30T05:38:10;66.75;;;39.10;;
22660;SDS011;11497;52.222;21.246;2023-08-30T05:40:49;62.40;;;38.60;;
22660;SDS011;11497;52.222;21.246;2023-08-30T05:43:16;69.07;;;39.20;;
22660;SDS011;11497;52.222;21.246;2023-08-30T05:45:44;59.55;;;36.88;;
22660;SDS011;11497;52.222;21.246;2023-08-30T05:48:14;65.43;;;37.58;;
22660;SDS011;11497;52.222;21.246;2023-08-30T05:50:42;67.10;;;39.15;;
22660;SDS011;11497;52.222;21.246;2023-08-30T05:53:09;64.35;;;37.13;;
22660;SDS011;11497;52.222;21.246;2023-08-30T05:55:37;65.75;;;39.00;;
22660;SDS011;11497;52.222;21.246;2023-08-30T05:58:05;73.40;;;38.72;;
22660;SDS011;11497;52.222;21.246;2023-08-30T06:00:33;71.88;;;39.78;;
22660;SDS011;11497;52.222;21.246;2023-08-30T06:03:01;71.70;;;39.55;;
22660;SDS011;11497;52.222;21.246;2023-08-30T06:05:29;69.43;;;40.10;;
22660;SDS011;11497;52.222;21.246;2023-08-30T06:07:57;74.03;;;40.08;;
22660;SDS011;11497;52.222;21.246;2023-08-30T06:10:25;67.15;;;39.50;;
22660;SDS011;11497;52.222;21.246;2023-08-30T06:12:53;65.55;;;39.55;;
22660;SDS011;11497;52.222;21.246;2023-08-30T06:15:21;73.10;;;41.88;;
22660;SDS011;11497;52.222;21.246;2023-08-30T06:17:48;69.60;;;39.33;;
22660;SDS011;11497;52.222;21.246;2023-08-30T06:20:16;69.82;;;39.47;;
22660;SDS011;11497;52.222;21.246;2023-08-30T06:22:44;75.97;;;40.70;;
22660;SDS011;11497;52.222;21.246;2023-08-30T06:25:12;64.78;;;38.40;;
22660;SDS011;11497;52.222;21.246;2023-08-30T06:27:43;66.85;;;39.15;;
22660;SDS011;11497;52.222;21.246;2023-08-30T06:30:10;61.22;;;36.95;;
22660;SDS011;11497;52.222;21.246;2023-08-30T06:32:39;56.58;;;35.75;;
22660;SDS011;11497;52.222;21.246;2023-08-30T06:35:06;59.33;;;35.78;;
22660;SDS011;11497;52.222;21.246;2023-08-30T06:37:35;52.30;;;34.38;;
22660;SDS011;11497;52.222;21.246;2023-08-30T06:40:03;58.05;;;34.53;;
22660;SDS011;11497;52.222;21.246;2023-08-30T06:42:31;53.33;;;33.28;;
22660;SDS011;11497;52.222;21.246;2023-08-30T06:44:59;51.15;;;32.67;;
22660;SDS011;11497;52.222;21.246;2023-08-30T06:47:27;53.40;;;33.70;;
22660;SDS011;11497;52.222;21.246;2023-08-30T06:49:54;51.72;;;33.17;;
22660;SDS011;11497;52.222;21.246;2023-08-30T06:52:22;52.33;;;33.78;;
22660;SDS011;11497;52.222;21.246;2023-08-30T06:54:50;49.55;;;32.20;;
22660;SDS011;11497;52.222;21.246;2023-08-30T06:57:18;50.67;;;32.35;;
22660;SDS011;11497;52.222;21.246;2023-08-30T06:59:45;56.05;;;32.90;;
22660;SDS011;11497;52.222;21.246;2023-08-30T07:02:13;50.08;;;31.98;;
22660;SDS011;11497;52.222;21.246;2023-08-30T07:04:41;51.28;;;32.90;;
22660;SDS011;11497;52.222;21.246;2023-08-30T07:07:09;54.45;;;32.42;;
22660;SDS011;11497;52.222;21.246;2023-08-30T07:09:36;52.75;;;32.70;;
22660;SDS011;11497;52.222;21.246;2023-08-30T07:12:04;52.55;;;32.88;;
22660;SDS011;11497;52.222;21.246;2023-08-30T07:14:32;54.80;;;34.45;;
22660;SDS011;11497;52.222;21.246;2023-08-30T07:17:00;51.08;;;31.92;;
22660;SDS011;11497;52.222;21.246;2023-08-30T07:19:27;47.83;;;32.72;;
22660;SDS011;11497;52.222;21.246;2023-08-30T07:21:55;52.15;;;32.33;;
22660;SDS011;11497;52.222;21.246;2023-08-30T07:24:23;51.97;;;31.48;;
22660;SDS011;11497;52.222;21.246;2023-08-30T07:26:51;51.72;;;32.25;;
22660;SDS011;11497;52.222;21.246;2023-08-30T07:29:18;47.15;;;30.70;;
22660;SDS011;11497;52.222;21.246;2023-08-30T07:31:46;49.08;;;31.23;;
22660;SDS011;11497;52.222;21.246;2023-08-30T07:34:14;45.72;;;30.33;;
22660;SDS011;11497;52.222;21.246;2023-08-30T07:36:42;50.00;;;31.17;;
22660;SDS011;11497;52.222;21.246;2023-08-30T07:39:13;58.25;;;36.10;;
22660;SDS011;11497;52.222;21.246;2023-08-30T07:41:42;58.92;;;33.15;;
22660;SDS011;11497;52.222;21.246;2023-08-30T07:44:09;55.30;;;32.58;;
22660;SDS011;11497;52.222;21.246;2023-08-30T07:46:37;57.85;;;34.13;;
22660;SDS011;11497;52.222;21.246;2023-08-30T07:49:05;59.30;;;34.85;;
22660;SDS011;11497;52.222;21.246;2023-08-30T07:51:33;61.42;;;33.97;;
22660;SDS011;11497;52.222;21.246;2023-08-30T07:54:00;60.75;;;32.97;;
22660;SDS011;11497;52.222;21.246;2023-08-30T07:56:31;57.33;;;33.08;;
22660;SDS011;11497;52.222;21.246;2023-08-30T07:58:59;64.55;;;35.72;;
22660;SDS011;11497;52.222;21.246;2023-08-30T08:01:26;55.97;;;32.55;;
22660;SDS011;11497;52.222;21.246;2023-08-30T08:03:54;53.70;;;30.98;;
22660;SDS011;11497;52.222;21.246;2023-08-30T08:06:33;53.35;;;30.85;;
22660;SDS011;11497;52.222;21.246;2023-08-30T08:09:03;51.88;;;29.73;;
22660;SDS011;11497;52.222;21.246;2023-08-30T08:11:32;56.95;;;31.92;;
22660;SDS011;11497;52.222;21.246;2023-08-30T08:13:59;45.53;;;26.92;;
22660;SDS011;11497;52.222;21.246;2023-08-30T08:16:28;43.92;;;27.00;;
22660;SDS011;11497;52.222;21.246;2023-08-30T08:18:56;50.58;;;28.23;;
22660;SDS011;11497;52.222;21.246;2023-08-30T08:21:26;48.90;;;27.85;;
22660;SDS011;11497;52.222;21.246;2023-08-30T08:23:53;51.10;;;30.30;;
22660;SDS011;11497;52.222;21.246;2023-08-30T08:26:21;49.40;;;28.80;;
22660;SDS011;11497;52.222;21.246;2023-08-30T08:28:49;46.75;;;28.02;;
22660;SDS011;11497;52.222;21.246;2023-08-30T08:31:18;53.35;;;28.40;;
22660;SDS011;11497;52.222;21.246;2023-08-30T08:33:45;50.03;;;29.30;;
22660;SDS011;11497;52.222;21.246;2023-08-30T08:36:13;52.70;;;30.20;;
22660;SDS011;11497;52.222;21.246;2023-08-30T08:38:41;50.55;;;29.98;;
22660;SDS011;11497;52.222;21.246;2023-08-30T08:41:09;54.22;;;32.10;;
22660;SDS011;11497;52.222;21.246;2023-08-30T08:43:39;54.60;;;30.77;;
22660;SDS011;11497;52.222;21.246;2023-08-30T08:46:08;53.33;;;31.00;;
22660;SDS011;11497;52.222;21.246;2023-08-30T08:48:39;49.67;;;29.48;;
22660;SDS011;11497;52.222;21.246;2023-08-30T08:51:07;49.63;;;29.45;;
22660;SDS011;11497;52.222;21.246;2023-08-30T08:53:35;46.08;;;28.50;;
22660;SDS011;11497;52.222;21.246;2023-08-30T08:56:03;49.63;;;28.90;;
22660;SDS011;11497;52.222;21.246;2023-08-30T08:58:31;52.63;;;28.65;;
22660;SDS011;11497;52.222;21.246;2023-08-30T09:00:59;50.40;;;27.50;;
22660;SDS011;11497;52.222;21.246;2023-08-30T09:03:27;48.03;;;27.48;;
22660;SDS011;11497;52.222;21.246;2023-08-30T09:05:55;49.03;;;27.77;;
22660;SDS011;11497;52.222;21.246;2023-08-30T09:08:23;45.65;;;26.38;;
22660;SDS011;11497;52.222;21.246;2023-08-30T09:10:51;44.55;;;26.27;;
22660;SDS011;11497;52.222;21.246;2023-08-30T09:13:18;44.75;;;25.60;;
22660;SDS011;11497;52.222;21.246;2023-08-30T09:15:48;38.78;;;22.58;;
22660;SDS011;11497;52.222;21.246;2023-08-30T09:18:16;34.35;;;21.35;;
22660;SDS011;11497;52.222;21.246;2023-08-30T09:20:44;31.27;;;20.33;;
22660;SDS011;11497;52.222;21.246;2023-08-30T09:23:21;29.80;;;19.10;;
22660;SDS011;11497;52.222;21.246;2023-08-30T09:25:54;29.77;;;20.02;;
22660;SDS011;11497;52.222;21.246;2023-08-30T09:28:22;28.20;;;18.55;;
22660;SDS011;11497;52.222;21.246;2023-08-30T09:30:50;26.38;;;17.65;;
22660;SDS011;11497;52.222;21.246;2023-08-30T09:33:22;23.23;;;16.65;;
22660;SDS011;11497;52.222;21.246;2023-08-30T09:35:50;22.20;;;15.88;;
22660;SDS011;11497;52.222;21.246;2023-08-30T09:38:18;22.90;;;16.30;;
22660;SDS011;11497;52.222;21.246;2023-08-30T09:40:46;23.60;;;15.50;;
22660;SDS011;11497;52.222;21.246;2023-08-30T09:43:14;19.63;;;15.13;;
22660;SDS011;11497;52.222;21.246;2023-08-30T09:45:46;21.40;;;15.63;;
22660;SDS011;11497;52.222;21.246;2023-08-30T09:48:14;21.33;;;14.95;;
22660;SDS011;11497;52.222;21.246;2023-08-30T09:50:42;17.98;;;14.52;;
22660;SDS011;11497;52.222;21.246;2023-08-30T09:53:12;21.42;;;15.40;;
22660;SDS011;11497;52.222;21.246;2023-08-30T09:55:43;20.75;;;15.90;;
22660;SDS011;11497;52.222;21.246;2023-08-30T09:58:11;16.70;;;12.82;;
22660;SDS011;11497;52.222;21.246;2023-08-30T10:00:42;13.77;;;11.45;;
22660;SDS011;11497;52.222;21.246;2023-08-30T10:03:11;13.18;;;10.90;;
22660;SDS011;11497;52.222;21.246;2023-08-30T10:05:57;10.95;;;9.35;;
22660;SDS011;11497;52.222;21.246;2023-08-30T10:08:25;13.57;;;9.50;;
22660;SDS011;11497;52.222;21.246;2023-08-30T10:10:57;8.90;;;7.80;;
22660;SDS011;11497;52.222;21.246;2023-08-30T10:13:25;12.90;;;8.10;;
22660;SDS011;11497;52.222;21.246;2023-08-30T10:15:56;6.78;;;5.50;;
22660;SDS011;11497;52.222;21.246;2023-08-30T10:18:27;10.35;;;6.05;;
22660;SDS011;11497;52.222;21.246;2023-08-30T10:20:55;8.20;;;6.18;;
22660;SDS011;11497;52.222;21.246;2023-08-30T10:23:24;8.95;;;6.10;;
22660;SDS011;11497;52.222;21.246;2023-08-30T10:25:52;9.95;;;5.22;;
22660;SDS011;11497;52.222;21.246;2023-08-30T10:28:21;8.60;;;5.45;;
22660;SDS011;11497;52.222;21.246;2023-08-30T10:30:51;6.72;;;5.35;;
22660;SDS011;11497;52.222;21.246;2023-08-30T10:33:19;11.13;;;5.18;;
22660;SDS011;11497;52.222;21.246;2023-08-30T10:35:53;5.57;;;4.90;;
22660;SDS011;11497;52.222;21.246;2023-08-30T10:38:26;7.22;;;4.60;;
22660;SDS011;11497;52.222;21.246;2023-08-30T10:40:54;8.57;;;4.80;;
22660;SDS011;11497;52.222;21.246;2023-08-30T10:43:29;4.55;;;4.05;;
22660;SDS011;11497;52.222;21.246;2023-08-30T10:45:59;5.28;;;4.32;;
22660;SDS011;11497;52.222;21.246;2023-08-30T10:48:33;5.85;;;4.28;;
22660;SDS011;11497;52.222;21.246;2023-08-30T10:51:02;5.65;;;4.30;;
22660;SDS011;11497;52.222;21.246;2023-08-30T10:53:33;5.88;;;4.50;;
22660;SDS011;11497;52.222;21.246;2023-08-30T10:56:19;5.45;;;4.40;;
22660;SDS011;11497;52.222;21.246;2023-08-30T10:58:52;7.05;;;4.97;;
22660;SDS011;11497;52.222;21.246;2023-08-30T11:01:20;5.93;;;4.45;;
22660;SDS011;11497;52.222;21.246;2023-08-30T11:03:47;7.63;;;5.28;;
22660;SDS011;11497;52.222;21.246;2023-08-30T11:06:19;10.10;;;5.05;;
22660;SDS011;11497;52.222;21.246;2023-08-30T11:08:48;3.97;;;3.58;;
22660;SDS011;11497;52.222;21.246;2023-08-30T11:11:16;4.57;;;3.50;;
22660;SDS011;11497;52.222;21.246;2023-08-30T11:13:44;4.15;;;3.30;;
22660;SDS011;11497;52.222;21.246;2023-08-30T11:16:12;6.32;;;3.25;;
22660;SDS011;11497;52.222;21.246;2023-08-30T11:18:40;3.78;;;3.17;;
22660;SDS011;11497;52.222;21.246;2023-08-30T11:21:09;4.88;;;2.97;;
22660;SDS011;11497;52.222;21.246;2023-08-30T11:23:38;5.75;;;3.10;;
22660;SDS011;11497;52.222;21.246;2023-08-30T11:26:07;3.40;;;3.10;;
22660;SDS011;11497;52.222;21.246;2023-08-30T11:28:34;3.47;;;3.13;;
22660;SDS011;11497;52.222;21.246;2023-08-30T11:31:03;3.80;;;3.40;;
22660;SDS011;11497;52.222;21.246;2023-08-30T11:33:31;3.50;;;3.15;;
22660;SDS011;11497;52.222;21.246;2023-08-30T11:35:58;4.63;;;3.70;;
22660;SDS011;11497;52.222;21.246;2023-08-30T11:38:27;5.22;;;3.88;;
22660;SDS011;11497;52.222;21.246;2023-08-30T11:40:55;4.80;;;3.50;;
22660;SDS011;11497;52.222;21.246;2023-08-30T11:43:24;3.95;;;3.38;;
22660;SDS011;11497;52.222;21.246;2023-08-30T11:45:55;5.45;;;4.15;;
22660;SDS011;11497;52.222;21.246;2023-08-30T11:48:23;4.65;;;3.95;;
22660;SDS011;11497;52.222;21.246;2023-08-30T11:50:51;5.57;;;4.35;;
22660;SDS011;11497;52.222;21.246;2023-08-30T11:53:19;7.43;;;4.10;;
22660;SDS011;11497;52.222;21.246;2023-08-30T11:55:47;4.82;;;4.32;;
22660;SDS011;11497;52.222;21.246;2023-08-30T11:58:15;6.22;;;5.03;;
22660;SDS011;11497;52.222;21.246;2023-08-30T12:00:43;7.10;;;5.60;;
22660;SDS011;11497;52.222;21.246;2023-08-30T12:03:13;6.63;;;5.63;;
22660;SDS011;11497;52.222;21.246;2023-08-30T12:05:49;8.13;;;6.88;;
22660;SDS011;11497;52.222;21.246;2023-08-30T12:08:17;10.40;;;7.30;;
22660;SDS011;11497;52.222;21.246;2023-08-30T12:10:46;11.40;;;7.00;;
22660;SDS011;11497;52.222;21.246;2023-08-30T12:15:54;9.95;;;7.80;;
22660;SDS011;11497;52.222;21.246;2023-08-30T12:18:25;8.60;;;7.20;;
22660;SDS011;11497;52.222;21.246;2023-08-30T12:23:26;11.43;;;8.05;;
22660;SDS011;11497;52.222;21.246;2023-08-30T12:26:08;11.27;;;8.10;;
22660;SDS011;11497;52.222;21.246;2023-08-30T12:28:38;9.57;;;7.25;;
22660;SDS011;11497;52.222;21.246;2023-08-30T12:31:06;10.70;;;7.57;;
22660;SDS011;11497;52.222;21.246;2023-08-30T12:33:34;10.98;;;7.90;;
22660;SDS011;11497;52.222;21.246;2023-08-30T12:36:02;10.50;;;6.32;;
22660;SDS011;11497;52.222;21.246;2023-08-30T12:38:30;5.13;;;4.45;;
22660;SDS011;11497;52.222;21.246;2023-08-30T12:40:58;4.43;;;3.00;;
22660;SDS011;11497;52.222;21.246;2023-08-30T12:43:26;5.40;;;3.33;;
22660;SDS011;11497;52.222;21.246;2023-08-30T12:45:54;3.05;;;2.75;;
22660;SDS011;11497;52.222;21.246;2023-08-30T12:48:22;3.67;;;2.88;;
22660;SDS011;11497;52.222;21.246;2023-08-30T12:50:50;4.55;;;2.78;;
22660;SDS011;11497;52.222;21.246;2023-08-30T12:53:17;3.45;;;2.53;;
22660;SDS011;11497;52.222;21.246;2023-08-30T12:55:45;5.10;;;3.05;;
22660;SDS011;11497;52.222;21.246;2023-08-30T12:58:13;3.53;;;3.20;;
22660;SDS011;11497;52.222;21.246;2023-08-30T13:00:41;3.28;;;2.65;;
22660;SDS011;11497;52.222;21.246;2023-08-30T13:03:09;3.58;;;2.60;;
22660;SDS011;11497;52.222;21.246;2023-08-30T13:05:38;4.32;;;2.97;;
22660;SDS011;11497;52.222;21.246;2023-08-30T13:08:05;6.78;;;3.05;;
22660;SDS011;11497;52.222;21.246;2023-08-30T13:10:33;3.15;;;2.88;;
22660;SDS011;11497;52.222;21.246;2023-08-30T13:13:01;3.78;;;2.65;;
22660;SDS011;11497;52.222;21.246;2023-08-30T13:15:30;4.65;;;3.28;;
22660;SDS011;11497;52.222;21.246;2023-08-30T13:17:57;4.47;;;3.40;;
22660;SDS011;11497;52.222;21.246;2023-08-30T13:20:25;4.25;;;3.53;;
22660;SDS011;11497;52.222;21.246;2023-08-30T13:22:53;3.85;;;3.42;;
22660;SDS011;11497;52.222;21.246;2023-08-30T13:25:21;4.50;;;4.03;;
22660;SDS011;11497;52.222;21.246;2023-08-30T13:27:48;5.65;;;4.43;;
22660;SDS011;11497;52.222;21.246;2023-08-30T13:30:16;4.80;;;4.00;;
22660;SDS011;11497;52.222;21.246;2023-08-30T13:32:44;7.63;;;4.88;;
22660;SDS011;11497;52.222;21.246;2023-08-30T13:35:12;6.07;;;4.72;;
22660;SDS011;11497;52.222;21.246;2023-08-30T13:37:39;7.22;;;4.57;;
22660;SDS011;11497;52.222;21.246;2023-08-30T13:40:07;8.00;;;5.55;;
22660;SDS011;11497;52.222;21.246;2023-08-30T13:42:35;7.18;;;5.32;;
22660;SDS011;11497;52.222;21.246;2023-08-30T13:45:03;6.82;;;5.65;;
22660;SDS011;11497;52.222;21.246;2023-08-30T13:47:33;6.85;;;5.53;;
22660;SDS011;11497;52.222;21.246;2023-08-30T13:50:00;6.85;;;5.68;;
22660;SDS011;11497;52.222;21.246;2023-08-30T13:52:30;9.00;;;6.35;;
22660;SDS011;11497;52.222;21.246;2023-08-30T13:54:59;9.05;;;7.22;;
22660;SDS011;11497;52.222;21.246;2023-08-30T13:57:27;9.18;;;5.93;;
22660;SDS011;11497;52.222;21.246;2023-08-30T13:59:55;8.23;;;7.00;;
22660;SDS011;11497;52.222;21.246;2023-08-30T14:02:23;9.20;;;7.07;;
22660;SDS011;11497;52.222;21.246;2023-08-30T14:04:52;9.05;;;7.00;;
22660;SDS011;11497;52.222;21.246;2023-08-30T14:07:19;10.75;;;6.95;;
22660;SDS011;11497;52.222;21.246;2023-08-30T14:09:47;8.73;;;7.03;;
22660;SDS011;11497;52.222;21.246;2023-08-30T14:12:15;8.52;;;6.80;;
22660;SDS011;11497;52.222;21.246;2023-08-30T14:14:43;9.57;;;6.97;;
22660;SDS011;11497;52.222;21.246;2023-08-30T14:17:10;10.40;;;7.20;;
22660;SDS011;11497;52.222;21.246;2023-08-30T14:19:38;9.82;;;7.65;;
22660;SDS011;11497;52.222;21.246;2023-08-30T14:22:06;9.63;;;7.57;;
22660;SDS011;11497;52.222;21.246;2023-08-30T14:24:34;12.95;;;9.40;;
22660;SDS011;11497;52.222;21.246;2023-08-30T14:27:17;10.52;;;8.55;;
22660;SDS011;11497;52.222;21.246;2023-08-30T14:29:45;11.00;;;8.18;;
22660;SDS011;11497;52.222;21.246;2023-08-30T14:32:13;9.63;;;8.02;;
22660;SDS011;11497;52.222;21.246;2023-08-30T14:34:40;10.82;;;8.35;;
22660;SDS011;11497;52.222;21.246;2023-08-30T14:37:08;9.20;;;7.82;;
22660;SDS011;11497;52.222;21.246;2023-08-30T14:39:36;10.50;;;7.75;;